Time,TemperatureF,DewpointF,PressureIn,WindDirection,WindDirectionDegrees,WindSpeedMPH,WindSpeedGustMPH,Humidity,HourlyPrecipIn,Conditions,Clouds,dailyrainin,SoftwareType,DateUTC
2013-09-23 00:00:00,59.4,53.7,29.96,NNW,338,0.0,0.0,81,0.00,,,0.00,WUHU216HW,2013-09-23 04:00:00,
2013-09-23 00:01:00,59.4,53.7,29.96,NNW,338,0.0,0.0,81,0.00,,,0.00,WUHU216HW,2013-09-23 04:01:00,
2013-09-23 00:06:00,59.4,53.7,29.96,NNW,338,0.0,0.0,81,0.00,,,0.00,WUHU216HW,2013-09-23 04:06:00,
2013-09-23 00:30:00,58.1,53.0,29.97,SW,225,0.0,0.0,83,0.00,,,0.00,WUHU216HW,2013-09-23 04:30:00,
2013-09-23 00:35:00,58.1,53.0,29.97,SW,225,0.0,0.0,83,0.00,,,0.00,WUHU216HW,2013-09-23 04:35:00,
2013-09-23 01:00:00,57.2,52.1,29.97,SW,225,0.0,0.0,83,0.00,,,0.00,WUHU216HW,2013-09-23 05:00:00,
2013-09-23 01:05:00,57.2,52.1,29.97,SW,225,0.0,0.0,83,0.00,,,0.00,WUHU216HW,2013-09-23 05:05:00,
2013-09-23 01:30:00,56.9,52.0,29.97,SW,225,0.0,0.0,84,0.00,,,0.00,WUHU216HW,2013-09-23 05:30:00,
2013-09-23 01:35:00,56.9,52.0,29.97,SW,225,0.0,0.0,84,0.00,,,0.00,WUHU216HW,2013-09-23 05:35:00,
2013-09-23 02:00:00,56.7,51.8,29.97,WSW,248,0.0,0.0,84,0.00,,,0.00,WUHU216HW,2013-09-23 06:00:00,
2013-09-23 02:05:00,56.7,51.8,29.97,WSW,248,0.0,0.0,84,0.00,,,0.00,WUHU216HW,2013-09-23 06:05:00,
2013-09-23 02:30:00,56.5,51.7,29.97,NNE,23,0.0,0.0,84,0.00,,,0.00,WUHU216HW,2013-09-23 06:30:00,
2013-09-23 02:35:00,56.5,51.7,29.97,NNE,23,0.0,0.0,84,0.00,,,0.00,WUHU216HW,2013-09-23 06:35:00,
2013-09-23 03:00:00,56.2,51.3,29.97,WSW,248,0.0,0.0,84,0.00,,,0.00,WUHU216HW,2013-09-23 07:00:00,
2013-09-23 03:05:00,56.2,51.3,29.97,WSW,248,0.0,0.0,84,0.00,,,0.00,WUHU216HW,2013-09-23 07:05:00,
2013-09-23 03:30:00,55.6,50.8,29.97,WSW,248,0.0,0.0,84,0.00,,,0.00,WUHU216HW,2013-09-23 07:30:00,
2013-09-23 03:35:00,55.6,50.8,29.97,WSW,248,0.0,0.0,84,0.00,,,0.00,WUHU216HW,2013-09-23 07:35:00,
2013-09-23 04:00:00,55.4,50.6,29.96,WSW,248,0.0,0.0,84,0.00,,,0.00,WUHU216HW,2013-09-23 08:00:00,
2013-09-23 04:05:00,55.4,50.6,29.96,WSW,248,0.0,0.0,84,0.00,,,0.00,WUHU216HW,2013-09-23 08:05:00,
2013-09-23 04:30:00,55.1,50.6,29.97,SW,225,0.0,0.0,85,0.00,,,0.00,WUHU216HW,2013-09-23 08:30:00,
2013-09-23 04:35:00,55.1,50.6,29.97,SW,225,0.0,0.0,85,0.00,,,0.00,WUHU216HW,2013-09-23 08:35:00,
2013-09-23 05:00:00,54.4,50.2,29.98,SW,225,0.0,0.0,86,0.00,,,0.00,WUHU216HW,2013-09-23 09:00:00,
2013-09-23 05:05:00,54.4,50.2,29.98,SW,225,0.0,0.0,86,0.00,,,0.00,WUHU216HW,2013-09-23 09:05:00,
2013-09-23 05:30:00,53.8,49.7,29.98,SW,225,0.0,0.0,86,0.00,,,0.00,WUHU216HW,2013-09-23 09:30:00,
2013-09-23 05:35:00,53.8,49.7,29.98,SW,225,0.0,0.0,86,0.00,,,0.00,WUHU216HW,2013-09-23 09:35:00,
2013-09-23 06:00:00,53.5,49.7,29.99,SW,225,0.0,0.0,87,0.00,,,0.00,WUHU216HW,2013-09-23 10:00:00,
2013-09-23 06:05:00,53.5,49.7,29.99,SW,225,0.0,0.0,87,0.00,,,0.00,WUHU216HW,2013-09-23 10:05:00,
2013-09-23 06:30:00,53.3,49.5,30.00,SW,225,0.0,0.0,87,0.00,,,0.00,WUHU216HW,2013-09-23 10:30:00,
2013-09-23 06:35:00,53.3,49.5,30.00,SW,225,0.0,0.0,87,0.00,,,0.00,WUHU216HW,2013-09-23 10:35:00,
2013-09-23 07:00:00,53.3,49.5,30.00,SW,225,0.0,0.0,87,0.00,,,0.00,WUHU216HW,2013-09-23 11:00:00,
2013-09-23 07:05:00,53.3,49.5,30.00,SW,225,0.0,0.0,87,0.00,,,0.00,WUHU216HW,2013-09-23 11:05:00,
2013-09-23 07:30:00,53.1,49.6,30.02,SW,225,0.0,0.0,88,0.00,,,0.00,WUHU216HW,2013-09-23 11:30:00,
2013-09-23 07:35:00,53.1,49.6,30.02,SW,225,0.0,0.0,88,0.00,,,0.00,WUHU216HW,2013-09-23 11:35:00,
2013-09-23 08:00:00,52.9,49.4,30.03,SW,225,0.0,0.0,88,0.00,,,0.00,WUHU216HW,2013-09-23 12:00:00,
2013-09-23 08:05:00,52.9,49.4,30.03,SW,225,0.0,0.0,88,0.00,,,0.00,WUHU216HW,2013-09-23 12:05:00,
2013-09-23 08:30:00,53.3,50.1,30.03,SW,225,0.0,0.0,89,0.00,,,0.00,WUHU216HW,2013-09-23 12:30:00,
2013-09-23 08:35:00,53.3,50.1,30.03,SW,225,0.0,0.0,89,0.00,,,0.00,WUHU216HW,2013-09-23 12:35:00,
2013-09-23 09:00:00,54.4,51.2,30.04,WSW,248,0.0,0.0,89,0.00,,,0.00,WUHU216HW,2013-09-23 13:00:00,
2013-09-23 09:05:00,54.4,51.2,30.04,WSW,248,0.0,0.0,89,0.00,,,0.00,WUHU216HW,2013-09-23 13:05:00,
2013-09-23 09:30:00,55.8,52.6,30.04,WSW,248,0.0,0.0,89,0.00,,,0.00,WUHU216HW,2013-09-23 13:30:00,
2013-09-23 09:35:00,55.8,52.6,30.04,WSW,248,0.0,0.0,89,0.00,,,0.00,WUHU216HW,2013-09-23 13:35:00,
2013-09-23 10:00:00,57.6,54.1,30.05,NW,315,0.4,0.4,88,0.00,,,0.00,WUHU216HW,2013-09-23 14:00:00,
2013-09-23 10:05:00,57.6,54.1,30.05,NW,315,0.4,0.4,88,0.00,,,0.00,WUHU216HW,2013-09-23 14:05:00,
2013-09-23 10:30:00,59.4,55.5,30.05,WSW,248,0.0,0.0,87,0.00,,,0.00,WUHU216HW,2013-09-23 14:30:00,
2013-09-23 10:35:00,59.4,55.5,30.05,WSW,248,0.0,0.0,87,0.00,,,0.00,WUHU216HW,2013-09-23 14:35:00,
2013-09-23 11:00:00,61.6,56.7,30.05,ESE,113,0.2,0.2,84,0.00,,,0.00,WUHU216HW,2013-09-23 15:00:00,
2013-09-23 11:05:00,61.6,56.7,30.05,ESE,113,0.2,0.2,84,0.00,,,0.00,WUHU216HW,2013-09-23 15:05:00,
2013-09-23 11:30:00,63.7,57.8,30.05,North,0,0.0,0.0,81,0.00,,,0.00,WUHU216HW,2013-09-23 15:30:00,
2013-09-23 11:35:00,63.7,57.8,30.05,North,0,0.0,0.0,81,0.00,,,0.00,WUHU216HW,2013-09-23 15:35:00,
2013-09-23 12:00:00,65.5,59.2,30.05,SW,225,0.0,0.0,80,0.00,,,0.00,WUHU216HW,2013-09-23 16:00:00,
2013-09-23 12:05:00,65.5,59.2,30.05,SW,225,0.0,0.0,80,0.00,,,0.00,WUHU216HW,2013-09-23 16:05:00,
2013-09-23 12:30:00,67.3,60.3,30.04,NNE,23,0.2,0.2,78,0.00,,,0.00,WUHU216HW,2013-09-23 16:30:00,
2013-09-23 12:35:00,67.3,60.3,30.04,NNE,23,0.2,0.2,78,0.00,,,0.00,WUHU216HW,2013-09-23 16:35:00,
2013-09-23 13:00:00,68.6,60.8,30.04,North,0,0.0,0.0,76,0.00,,,0.00,WUHU216HW,2013-09-23 17:00:00,
2013-09-23 13:05:00,68.6,60.8,30.04,North,0,0.0,0.0,76,0.00,,,0.00,WUHU216HW,2013-09-23 17:05:00,
2013-09-23 13:30:00,69.8,61.8,30.04,WSW,248,0.4,0.4,76,0.00,,,0.00,WUHU216HW,2013-09-23 17:30:00,
2013-09-23 13:35:00,69.8,61.8,30.04,WSW,248,0.4,0.4,76,0.00,,,0.00,WUHU216HW,2013-09-23 17:35:00,
2013-09-23 14:00:00,70.7,62.0,30.03,NNE,23,0.4,0.4,74,0.00,,,0.00,WUHU216HW,2013-09-23 18:00:00,
2013-09-23 14:05:00,70.7,62.0,30.03,NNE,23,0.4,0.4,74,0.00,,,0.00,WUHU216HW,2013-09-23 18:05:00,
2013-09-23 14:30:00,71.5,61.2,30.03,NE,45,2.2,2.2,70,0.00,,,0.00,WUHU216HW,2013-09-23 18:30:00,
2013-09-23 14:35:00,71.5,61.2,30.03,NE,45,2.2,2.2,70,0.00,,,0.00,WUHU216HW,2013-09-23 18:35:00,
2013-09-23 15:00:00,72.0,61.7,30.03,North,0,0.2,0.2,70,0.00,,,0.00,WUHU216HW,2013-09-23 19:00:00,
2013-09-23 15:05:00,72.0,61.7,30.03,North,0,0.2,0.2,70,0.00,,,0.00,WUHU216HW,2013-09-23 19:05:00,
2013-09-23 15:30:00,72.2,62.3,30.02,SW,225,0.4,0.4,71,0.00,,,0.00,WUHU216HW,2013-09-23 19:30:00,
2013-09-23 15:35:00,72.2,62.3,30.02,SW,225,0.4,0.4,71,0.00,,,0.00,WUHU216HW,2013-09-23 19:35:00,
2013-09-23 16:00:00,72.4,62.1,30.02,WNW,293,0.0,0.0,70,0.00,,,0.00,WUHU216HW,2013-09-23 20:00:00,
2013-09-23 16:05:00,72.4,62.1,30.02,WNW,293,0.0,0.0,70,0.00,,,0.00,WUHU216HW,2013-09-23 20:05:00,
2013-09-23 16:30:00,72.7,62.5,30.01,WSW,248,0.0,0.0,70,0.00,,,0.00,WUHU216HW,2013-09-23 20:30:00,
2013-09-23 16:35:00,72.7,62.5,30.01,WSW,248,0.0,0.0,70,0.00,,,0.00,WUHU216HW,2013-09-23 20:35:00,
2013-09-23 17:00:00,73.1,62.4,30.01,North,0,0.0,0.0,69,0.00,,,0.00,WUHU216HW,2013-09-23 21:00:00,
2013-09-23 17:05:00,73.1,62.4,30.01,North,0,0.0,0.0,69,0.00,,,0.00,WUHU216HW,2013-09-23 21:05:00,
2013-09-23 17:30:00,73.4,61.8,30.02,NE,45,0.4,0.4,67,0.00,,,0.00,WUHU216HW,2013-09-23 21:30:00,
2013-09-23 17:35:00,73.4,61.8,30.02,NE,45,0.4,0.4,67,0.00,,,0.00,WUHU216HW,2013-09-23 21:35:00,
2013-09-23 18:00:00,72.4,61.2,30.01,NNE,23,0.0,0.0,68,0.00,,,0.00,WUHU216HW,2013-09-23 22:00:00,
2013-09-23 18:05:00,72.4,61.2,30.01,NNE,23,0.0,0.0,68,0.00,,,0.00,WUHU216HW,2013-09-23 22:05:00,
2013-09-23 18:30:00,72.0,61.3,30.01,NNE,23,0.0,0.0,69,0.00,,,0.00,WUHU216HW,2013-09-23 22:30:00,
2013-09-23 18:35:00,72.0,61.3,30.01,NNE,23,0.0,0.0,69,0.00,,,0.00,WUHU216HW,2013-09-23 22:35:00,
2013-09-23 19:00:00,71.1,60.8,30.01,NNE,23,0.0,0.0,70,0.00,,,0.00,WUHU216HW,2013-09-23 23:00:00,
2013-09-23 19:05:00,71.1,60.8,30.01,NNE,23,0.0,0.0,70,0.00,,,0.00,WUHU216HW,2013-09-23 23:05:00,
2013-09-23 19:30:00,70.4,60.1,30.01,NNE,23,0.0,0.0,70,0.00,,,0.00,WUHU216HW,2013-09-23 23:30:00,
2013-09-23 19:35:00,70.4,60.1,30.01,NNE,23,0.0,0.0,70,0.00,,,0.00,WUHU216HW,2013-09-23 23:35:00,
2013-09-23 20:00:00,69.5,59.7,30.01,NNE,23,0.2,0.2,71,0.00,,,0.00,WUHU216HW,2013-09-24 00:00:00,
2013-09-23 20:05:00,69.5,59.7,30.01,NNE,23,0.2,0.2,71,0.00,,,0.00,WUHU216HW,2013-09-24 00:05:00,
2013-09-23 20:30:00,68.8,59.8,30.01,NNE,23,0.0,0.0,73,0.00,,,0.00,WUHU216HW,2013-09-24 00:30:00,
2013-09-23 20:35:00,68.8,59.8,30.01,NNE,23,0.0,0.0,73,0.00,,,0.00,WUHU216HW,2013-09-24 00:35:00,
2013-09-23 21:00:00,68.2,59.7,30.02,NNE,23,0.0,0.0,74,0.00,,,0.00,WUHU216HW,2013-09-24 01:00:00,
2013-09-23 21:05:00,68.2,59.7,30.02,NNE,23,0.0,0.0,74,0.00,,,0.00,WUHU216HW,2013-09-24 01:05:00,
2013-09-23 21:30:00,67.5,59.3,30.02,NNE,23,0.0,0.0,75,0.00,,,0.00,WUHU216HW,2013-09-24 01:30:00,
2013-09-23 21:35:00,67.5,59.3,30.02,NNE,23,0.0,0.0,75,0.00,,,0.00,WUHU216HW,2013-09-24 01:35:00,
2013-09-23 22:00:00,67.1,59.3,30.02,NNE,23,0.0,0.0,76,0.00,,,0.00,WUHU216HW,2013-09-24 02:00:00,
2013-09-23 22:05:00,67.1,59.3,30.02,NNE,23,0.0,0.0,76,0.00,,,0.00,WUHU216HW,2013-09-24 02:05:00,
2013-09-23 22:30:00,66.6,59.1,30.03,NNE,23,0.0,0.0,77,0.00,,,0.00,WUHU216HW,2013-09-24 02:30:00,
2013-09-23 22:35:00,66.6,59.1,30.03,NNE,23,0.0,0.0,77,0.00,,,0.00,WUHU216HW,2013-09-24 02:35:00,
2013-09-23 23:00:00,66.1,59.1,30.03,ENE,68,0.0,0.0,78,0.00,,,0.00,WUHU216HW,2013-09-24 03:00:00,
2013-09-23 23:05:00,66.1,59.1,30.03,ENE,68,0.0,0.0,78,0.00,,,0.00,WUHU216HW,2013-09-24 03:05:00,
2013-09-23 23:30:00,65.5,58.9,30.04,East,90,0.0,0.0,79,0.00,,,0.00,WUHU216HW,2013-09-24 03:30:00,
2013-09-23 23:35:00,65.5,58.9,30.04,East,90,0.0,0.0,79,0.00,,,0.00,WUHU216HW,2013-09-24 03:35:00,